| time (UTC) | temp C | wind direction | speed KPH | gust KPH | rain 1hr cm | rain 24hr cm | rain mn cm | humidity % | barometer mb |
| 20260506200143 | 14 | 195 | 1.6 | 11.3 | 0.03 | 0.25 | 0.25 | 96 | 1007.3 |
| 20260506194604 | 14 | 343 | 1.6 | 11.3 | 0.03 | 0.25 | 0.25 | 96 | 1007.5 |
| 20260506193058 | 14 | 208 | 3.2 | 14.5 | 0.03 | 0.25 | 0.25 | 96 | 1007.6 |
| 20260506191557 | 14 | 278 | 3.2 | 12.9 | 0.08 | 0.25 | 0.25 | 96 | 1007.9 |
| 20260506190056 | 14 | 216 | 3.2 | 12.9 | 0.08 | 0.23 | 0.23 | 96 | 1008.0 |
| 20260506184556 | 14 | 148 | 3.2 | 11.3 | 0.08 | 0.23 | 0.23 | 96 | 1008.2 |
| 20260506183055 | 14 | 160 | 3.2 | 12.9 | 0.13 | 0.23 | 0.23 | 95 | 1008.5 |
| 20260506181557 | 14 | 236 | 4.8 | 19.3 | 0.18 | 0.18 | 0.18 | 94 | 1008.5 |
| 20260506180106 | 14 | 0 | 3.2 | 14.5 | 0.15 | 0.15 | 0.15 | 94 | 1008.2 |
| 20260506174558 | 15 | 172 | 0.0 | 9.7 | 0.15 | 0.15 | 0.15 | 93 | 1008.7 |
| 20260506173116 | 15 | 0 | 3.2 | 12.9 | 0.10 | 0.10 | 0.10 | 91 | 1009.0 |
| 20260506171601 | 15 | 326 | 1.6 | 6.4 | 0.00 | 0.00 | 0.00 | 88 | 1009.4 |
| 20260506170059 | 16 | 103 | 1.6 | 11.3 | 0.00 | 0.00 | 0.00 | 86 | 1009.8 |
| 20260506164556 | 16 | 276 | 3.2 | 16.1 | 0.00 | 0.00 | 0.00 | 84 | 1009.8 |
| 20260506163107 | 16 | 161 | 4.8 | 17.7 | 0.00 | 0.00 | 0.00 | 83 | 1009.8 |
| 20260506161600 | 17 | 163 | 4.8 | 17.7 | 0.00 | 0.00 | 0.00 | 81 | 1009.8 |
| 20260506160107 | 17 | 158 | 6.4 | 22.5 | 0.00 | 0.00 | 0.00 | 81 | 1010.0 |
| 20260506154558 | 17 | 188 | 6.4 | 19.3 | 0.00 | 0.00 | 0.00 | 82 | 1010.1 |
| 20260506153100 | 17 | 64 | 6.4 | 12.9 | 0.00 | 0.00 | 0.00 | 81 | 1010.2 |
| 20260506151559 | 17 | 283 | 3.2 | 12.9 | 0.00 | 0.00 | 0.00 | 81 | 1009.9 |
| 20260506144601 | 18 | 160 | 3.2 | 16.1 | 0.00 | 0.00 | 0.00 | 80 | 1010.0 |
| 20260506143059 | 18 | 256 | 9.7 | 22.5 | 0.00 | 0.00 | 0.00 | 78 | 1010.2 |
| 20260506141609 | 18 | 11 | 6.4 | 19.3 | 0.00 | 0.00 | 0.00 | 78 | 1010.0 |
| 20260506140101 | 18 | 140 | 3.2 | 16.1 | 0.00 | 0.00 | 0.00 | 80 | 1010.4 |
| 20260506134619 | 18 | 163 | 4.8 | 19.3 | 0.00 | 0.00 | 0.00 | 80 | 1010.3 |
| 20260506133056 | 17 | 157 | 4.8 | 16.1 | 0.00 | 0.00 | 0.00 | 81 | 1010.2 |
| 20260506131608 | 17 | 190 | 4.8 | 16.1 | 0.00 | 0.00 | 0.00 | 82 | 1010.1 |
| 20260506130055 | 16 | 161 | 6.4 | 20.9 | 0.00 | 0.00 | 0.00 | 83 | 1010.1 |
| 20260506124556 | 16 | 130 | 4.8 | 16.1 | 0.00 | 0.00 | 0.00 | 84 | 1010.4 |
| 20260506123058 | 16 | 175 | 3.2 | 17.7 | 0.00 | 0.00 | 0.00 | 85 | 1010.8 |
| 20260506121605 | 16 | 221 | 4.8 | 14.5 | 0.00 | 0.00 | 0.00 | 86 | 1010.7 |
| 20260506114556 | 15 | 142 | 3.2 | 14.5 | 0.00 | 0.00 | 0.00 | 90 | 1010.6 |
| 20260506113058 | 14 | 242 | 1.6 | 11.3 | 0.00 | 0.00 | 0.00 | 91 | 1010.7 |
| 20260506111612 | 14 | 166 | 3.2 | 11.3 | 0.00 | 0.00 | 0.00 | 92 | 1010.8 |
| 20260506110058 | 13 | 146 | 3.2 | 9.7 | 0.00 | 0.00 | 0.00 | 93 | 1011.0 |
| 20260506104559 | 13 | 146 | 1.6 | 11.3 | 0.00 | 0.00 | 0.00 | 93 | 1010.6 |
| 20260506103101 | 12 | 273 | 0.0 | 12.9 | 0.00 | 0.00 | 0.00 | 93 | 1010.7 |
| 20260506101557 | 12 | 210 | 1.6 | 8.0 | 0.00 | 0.00 | 0.00 | 93 | 1010.7 |
| 20260506100101 | 12 | 115 | 0.0 | 9.7 | 0.00 | 0.00 | 0.00 | 93 | 1010.6 |
| 20260506094555 | 13 | 114 | 1.6 | 11.3 | 0.00 | 0.00 | 0.00 | 92 | 1010.4 |
| 20260506093059 | 13 | 169 | 1.6 | 11.3 | 0.00 | 0.00 | 0.00 | 92 | 1010.5 |
| 20260506091555 | 13 | 140 | 3.2 | 9.7 | 0.00 | 0.00 | 0.00 | 92 | 1010.6 |
| 20260506090056 | 13 | 30 | 1.6 | 11.3 | 0.00 | 0.00 | 0.00 | 91 | 1010.7 |
| 20260506084605 | 13 | 0 | 1.6 | 6.4 | 0.00 | 0.00 | 0.00 | 91 | 1010.7 |
| 20260506083114 | 13 | 146 | 1.6 | 8.0 | 0.00 | 0.00 | 0.00 | 90 | 1010.8 |
| 20260506081558 | 13 | 0 | 1.6 | 11.3 | 0.00 | 0.00 | 0.00 | 90 | 1010.8 |
| 20260506073056 | 13 | 66 | 1.6 | 9.7 | 0.00 | 0.00 | 0.00 | 89 | 1010.9 |
| 20260506071559 | 13 | 0 | 1.6 | 11.3 | 0.00 | 0.00 | 0.00 | 88 | 1011.1 |
| 20260506070126 | 13 | 57 | 1.6 | 8.0 | 0.00 | 0.00 | 0.00 | 87 | 1011.0 |
| 20260506061556 | 14 | 173 | 3.2 | 16.1 | 0.00 | 0.00 | 0.00 | 86 | 1010.8 |
| 20260506050109 | 15 | 250 | 3.2 | 12.9 | 0.00 | 0.00 | 0.00 | 83 | 1011.2 |
| 20260506044558 | 15 | 157 | 4.8 | 14.5 | 0.00 | 0.00 | 0.00 | 83 | 1011.4 |
| 20260506043058 | 15 | 272 | 1.6 | 14.5 | 0.00 | 0.00 | 0.00 | 82 | 1011.3 |
| 20260506041621 | 16 | 122 | 4.8 | 17.7 | 0.00 | 0.00 | 0.00 | 82 | 1011.4 |
| 20260506040101 | 15 | 49 | 3.2 | 12.9 | 0.00 | 0.00 | 0.00 | 82 | 1011.4 |
| 20260506034601 | 16 | 236 | 3.2 | 9.7 | 0.00 | 0.00 | 0.00 | 81 | 1011.4 |
| 20260506033059 | 16 | 351 | 4.8 | 20.9 | 0.00 | 0.00 | 0.00 | 80 | 1011.5 |
| 20260506031601 | 16 | 306 | 3.2 | 20.9 | 0.00 | 0.00 | 0.00 | 78 | 1011.4 |
| 20260506030059 | 16 | 137 | 1.6 | 16.1 | 0.00 | 0.00 | 0.00 | 76 | 1011.4 |
| 20260506024601 | 16 | 227 | 4.8 | 20.9 | 0.00 | 0.00 | 0.00 | 75 | 1011.4 |
| 20260506023057 | 16 | 340 | 3.2 | 16.1 | 0.00 | 0.00 | 0.00 | 75 | 1011.3 |
| 20260506021558 | 16 | 199 | 4.8 | 17.7 | 0.00 | 0.00 | 0.00 | 74 | 1011.3 |
| 20260506020111 | 16 | 302 | 4.8 | 20.9 | 0.00 | 0.00 | 0.00 | 74 | 1011.2 |
| 20260506014612 | 16 | 279 | 4.8 | 19.3 | 0.00 | 0.00 | 0.00 | 76 | 1011.1 |
| 20260506013057 | 16 | 48 | 1.6 | 12.9 | 0.00 | 0.00 | 0.00 | 75 | 1010.9 |
| 20260506011619 | 16 | 132 | 1.6 | 12.9 | 0.00 | 0.00 | 0.00 | 74 | 1010.8 |
| 20260506010056 | 16 | 271 | 4.8 | 17.7 | 0.00 | 0.00 | 0.00 | 74 | 1010.6 |
| 20260506004605 | 16 | 214 | 4.8 | 17.7 | 0.00 | 0.00 | 0.00 | 73 | 1010.5 |
| 20260506003058 | 16 | 233 | 3.2 | 19.3 | 0.00 | 0.00 | 0.00 | 72 | 1010.3 |
| 20260506001602 | 17 | 0 | 4.8 | 16.1 | 0.00 | 0.00 | 0.00 | 71 | 1009.9 |
| 20260506000120 | 17 | 275 | 3.2 | 19.3 | 0.00 | 0.00 | 0.00 | 71 | 1009.8 |
| 20260505234557 | 17 | 199 | 1.6 | 16.1 | 0.00 | 0.00 | 0.00 | 70 | 1009.6 |
| 20260505233100 | 17 | 228 | 3.2 | 16.1 | 0.00 | 0.00 | 0.00 | 68 | 1009.4 |
| 20260505231614 | 18 | 117 | 1.6 | 19.3 | 0.00 | 0.00 | 0.00 | 68 | 1009.2 |
| 20260505230107 | 19 | 301 | 4.8 | 17.7 | 0.00 | 0.00 | 0.00 | 66 | 1008.8 |
| 20260505224600 | 19 | 319 | 3.2 | 20.9 | 0.00 | 0.00 | 0.00 | 65 | 1009.0 |
| 20260505223103 | 20 | 136 | 3.2 | 14.5 | 0.00 | 0.00 | 0.00 | 64 | 1009.1 |
| 20260505221604 | 20 | 309 | 3.2 | 19.3 | 0.00 | 0.00 | 0.00 | 65 | 1009.1 |
| 20260505220058 | 20 | 97 | 4.8 | 17.7 | 0.00 | 0.00 | 0.00 | 65 | 1008.9 |
| 20260505214557 | 21 | 223 | 4.8 | 20.9 | 0.00 | 0.00 | 0.00 | 64 | 1008.8 |
| 20260505213059 | 21 | 314 | 6.4 | 20.9 | 0.00 | 0.00 | 0.00 | 65 | 1008.8 |
| 20260505211558 | 20 | 131 | 6.4 | 19.3 | 0.00 | 0.00 | 0.00 | 63 | 1008.8 |
| 20260505210057 | 21 | 118 | 6.4 | 22.5 | 0.00 | 0.00 | 0.00 | 62 | 1008.7 |
| 20260505204602 | 21 | 304 | 1.6 | 25.7 | 0.00 | 0.00 | 0.00 | 64 | 1008.6 |
| 20260505203102 | 22 | 360 | 4.8 | 16.1 | 0.00 | 0.00 | 0.00 | 63 | 1008.6 |
| 20260505201557 | 22 | 126 | 3.2 | 19.3 | 0.00 | 0.00 | 0.00 | 62 | 1008.7 |